Time;durP1;ratioP1;P1;durP2;ratioP2;P2;SDS_P1;SDS_P2;PMS_P1;PMS_P2;Temp;Humidity;BMP_temperature;BMP_pressure;BME280_temperature;BME280_humidity;BME280_pressure;Samples;Min_cycle;Max_cycle;Signal;HPM_P1;HPM_P2
2022/06/22 00:00:18;;;;;;;29.20;13.93;;;;;;;;;;5066887;28;20127;-60
2022/06/22 00:02:46;;;;;;;27.33;13.55;;;;;;;;;;5060912;28;20524;-60
2022/06/22 00:05:14;;;;;;;28.83;13.15;;;;;;;;;;5064626;28;20064;-60
2022/06/22 00:07:43;;;;;;;30.73;13.40;;;;;;;;;;5059418;28;20384;-60
2022/06/22 00:10:18;;;;;;;37.15;16.02;;;;;;;;;;5057474;28;20025;-60
2022/06/22 00:12:49;;;;;;;31.73;13.93;;;;;;;;;;5053055;28;20025;-60
2022/06/22 00:15:33;;;;;;;33.35;14.50;;;;;;;;;;5051462;28;20028;-60
2022/06/22 00:18:01;;;;;;;25.70;12.95;;;;;;;;;;5051924;28;20028;-60
2022/06/22 00:20:28;;;;;;;28.10;13.38;;;;;;;;;;5052228;28;20381;-60
2022/06/22 00:22:54;;;;;;;35.25;13.50;;;;;;;;;;5052827;28;20074;-60
2022/06/22 00:25:22;;;;;;;27.48;13.90;;;;;;;;;;5064074;28;20044;-60
2022/06/22 00:27:49;;;;;;;33.72;15.05;;;;;;;;;;5052961;28;20029;-60
2022/06/22 00:30:15;;;;;;;22.73;13.45;;;;;;;;;;5052937;28;20036;-60
2022/06/22 00:32:53;;;;;;;28.92;13.93;;;;;;;;;;5057502;28;20031;-60
2022/06/22 00:35:36;;;;;;;28.92;13.30;;;;;;;;;;5060553;28;20024;-60
2022/06/22 00:38:02;;;;;;;29.63;14.00;;;;;;;;;;5072781;28;20024;-60
2022/06/22 00:40:29;;;;;;;30.42;14.05;;;;;;;;;;5072699;28;20242;-60
2022/06/22 00:42:56;;;;;;;34.28;15.00;;;;;;;;;;5072954;28;20452;-60
2022/06/22 00:45:28;;;;;;;29.00;13.93;;;;;;;;;;5072715;28;20078;-60
2022/06/22 00:48:04;;;;;;;37.03;13.23;;;;;;;;;;5072779;28;20025;-60
2022/06/22 00:50:45;;;;;;;31.63;12.43;;;;;;;;;;5061679;28;20041;-60
2022/06/22 00:53:11;;;;;;;25.35;13.40;;;;;;;;;;5053621;28;20171;-60
2022/06/22 00:55:38;;;;;;;27.77;14.32;;;;;;;;;;5072483;28;20021;-60
2022/06/22 00:58:08;;;;;;;44.13;13.30;;;;;;;;;;5067933;28;20017;-60
2022/06/22 01:00:40;;;;;;;31.05;13.52;;;;;;;;;;5052723;28;20041;-60
2022/06/22 01:03:18;;;;;;;27.67;14.38;;;;;;;;;;5071804;28;20031;-60
2022/06/22 01:05:54;;;;;;;25.52;12.95;;;;;;;;;;5071929;28;20021;-60
2022/06/22 01:08:26;;;;;;;35.53;14.13;;;;;;;;;;5072370;28;20024;-60
2022/06/22 01:10:56;;;;;;;36.25;13.45;;;;;;;;;;5072276;28;20062;-60
2022/06/22 01:13:29;;;;;;;30.02;12.90;;;;;;;;;;5055625;28;20108;-60
2022/06/22 01:15:59;;;;;;;30.58;12.10;;;;;;;;;;5052365;28;20025;-60
2022/06/22 01:18:29;;;;;;;27.73;12.05;;;;;;;;;;5051879;28;20021;-60
2022/06/22 01:21:14;;;;;;;28.33;11.77;;;;;;;;;;5052173;28;20400;-60
2022/06/22 01:23:55;;;;;;;36.42;13.18;;;;;;;;;;5051987;28;20489;-60
2022/06/22 01:26:40;;;;;;;35.40;13.02;;;;;;;;;;5052262;28;20091;-60
2022/06/22 01:29:08;;;;;;;33.90;12.65;;;;;;;;;;5052388;28;20061;-60
2022/06/22 01:31:34;;;;;;;34.20;14.50;;;;;;;;;;5066632;28;20020;-60
2022/06/22 01:34:01;;;;;;;29.02;13.65;;;;;;;;;;5071706;28;20442;-60
2022/06/22 01:36:32;;;;;;;21.77;13.35;;;;;;;;;;5072209;28;20411;-60
2022/06/22 01:38:58;;;;;;;26.52;12.77;;;;;;;;;;5072130;28;20457;-60
2022/06/22 01:41:30;;;;;;;29.25;12.65;;;;;;;;;;5071667;28;20082;-60
2022/06/22 01:44:15;;;;;;;30.20;12.77;;;;;;;;;;5074396;28;20090;-60
2022/06/22 01:46:59;;;;;;;37.53;13.95;;;;;;;;;;5076081;28;20408;-60
2022/06/22 01:49:30;;;;;;;25.58;13.63;;;;;;;;;;5065314;28;20033;-60
2022/06/22 01:52:01;;;;;;;39.80;14.38;;;;;;;;;;5056026;28;20037;-60
2022/06/22 01:54:35;;;;;;;29.27;13.00;;;;;;;;;;5055920;28;20037;-60
2022/06/22 01:57:06;;;;;;;31.70;14.43;;;;;;;;;;5056059;28;20075;-60
2022/06/22 01:59:41;;;;;;;40.35;15.50;;;;;;;;;;5055661;28;20045;-60
2022/06/22 02:02:08;;;;;;;34.83;15.23;;;;;;;;;;5055971;28;20075;-61
2022/06/22 02:04:40;;;;;;;27.65;15.07;;;;;;;;;;5054374;28;20615;-60
2022/06/22 02:09:59;;;;;;;33.03;15.50;;;;;;;;;;5055748;28;20037;-60
2022/06/22 02:12:29;;;;;;;36.22;15.98;;;;;;;;;;5055693;28;20120;-60
2022/06/22 02:15:03;;;;;;;42.50;17.02;;;;;;;;;;5055417;28;20024;-60
2022/06/22 02:17:31;;;;;;;34.08;16.27;;;;;;;;;;5055424;28;20457;-60
2022/06/22 02:20:16;;;;;;;35.33;16.83;;;;;;;;;;5069306;28;20632;-60
2022/06/22 02:22:42;;;;;;;39.78;17.30;;;;;;;;;;5075453;28;20556;-60
2022/06/22 02:25:08;;;;;;;30.70;17.08;;;;;;;;;;5075577;28;20032;-60
2022/06/22 02:27:34;;;;;;;36.90;17.38;;;;;;;;;;5067400;28;20032;-60
2022/06/22 02:30:00;;;;;;;34.80;16.70;;;;;;;;;;5055452;28;20029;-60
2022/06/22 02:32:35;;;;;;;33.97;16.77;;;;;;;;;;5054771;28;20037;-60
2022/06/22 02:35:02;;;;;;;35.13;16.27;;;;;;;;;;5055271;28;20039;-60
2022/06/22 02:37:30;;;;;;;34.70;15.95;;;;;;;;;;5055187;28;20009;-60
2022/06/22 02:39:58;;;;;;;36.97;17.00;;;;;;;;;;5055038;28;20528;-60
2022/06/22 02:45:09;;;;;;;36.35;19.17;;;;;;;;;;5055619;28;20398;-60
2022/06/22 02:47:49;;;;;;;46.63;22.08;;;;;;;;;;5075044;28;20073;-60
2022/06/22 02:50:23;;;;;;;39.80;20.55;;;;;;;;;;5073315;28;20039;-60
2022/06/22 02:52:51;;;;;;;39.00;19.50;;;;;;;;;;5054845;28;20029;-60
2022/06/22 02:55:18;;;;;;;40.92;20.23;;;;;;;;;;5054966;28;20032;-60
2022/06/22 02:57:47;;;;;;;39.60;20.13;;;;;;;;;;5054798;28;20144;-60
2022/06/22 03:00:17;;;;;;;37.13;19.40;;;;;;;;;;5054519;28;20047;-60
2022/06/22 03:02:44;;;;;;;45.78;18.75;;;;;;;;;;5054482;28;20049;-60
2022/06/22 03:05:11;;;;;;;37.20;19.00;;;;;;;;;;5055406;28;20041;-60
2022/06/22 03:07:42;;;;;;;37.03;18.48;;;;;;;;;;5074653;28;20467;-60
2022/06/22 03:10:16;;;;;;;36.03;17.83;;;;;;;;;;5074752;28;20468;-60
2022/06/22 03:12:42;;;;;;;38.78;19.75;;;;;;;;;;5074642;28;20044;-60
2022/06/22 03:15:14;;;;;;;46.03;20.67;;;;;;;;;;5074281;28;20055;-60
2022/06/22 03:17:40;;;;;;;40.92;20.23;;;;;;;;;;5074343;28;20024;-60
2022/06/22 03:20:08;;;;;;;38.22;17.98;;;;;;;;;;5074546;28;20021;-60
2022/06/22 03:22:37;;;;;;;39.95;18.33;;;;;;;;;;5070669;28;20108;-60
2022/06/22 03:25:17;;;;;;;33.55;17.35;;;;;;;;;;5063591;28;20120;-60
2022/06/22 03:27:46;;;;;;;36.47;17.70;;;;;;;;;;5054694;28;20028;-60
2022/06/22 03:30:14;;;;;;;41.47;18.70;;;;;;;;;;5063816;28;20021;-60
2022/06/22 03:32:43;;;;;;;42.88;18.67;;;;;;;;;;5059093;28;20048;-60
2022/06/22 03:35:12;;;;;;;34.95;18.55;;;;;;;;;;5067192;28;20868;-60
2022/06/22 03:37:41;;;;;;;43.22;18.98;;;;;;;;;;5053430;28;20029;-60
2022/06/22 03:40:28;;;;;;;37.38;18.80;;;;;;;;;;5071024;28;20442;-60
2022/06/22 03:42:56;;;;;;;33.58;17.17;;;;;;;;;;5070876;28;20439;-60
2022/06/22 03:45:42;;;;;;;43.22;19.30;;;;;;;;;;5061579;28;20033;-60
2022/06/22 03:48:12;;;;;;;37.38;18.88;;;;;;;;;;5056388;28;20033;-60
2022/06/22 03:50:41;;;;;;;42.20;19.45;;;;;;;;;;5072317;28;20024;-60
2022/06/22 03:53:34;;;;;;;34.88;18.67;;;;;;;;;;5062187;28;20096;-60
2022/06/22 03:56:02;;;;;;;36.65;17.63;;;;;;;;;;5069860;28;20412;-60
2022/06/22 03:58:29;;;;;;;38.28;19.15;;;;;;;;;;5058640;28;20036;-60
2022/06/22 04:00:55;;;;;;;40.25;18.27;;;;;;;;;;5063977;28;20033;-60
2022/06/22 04:03:21;;;;;;;41.65;19.08;;;;;;;;;;5066160;28;20036;-60
2022/06/22 04:05:49;;;;;;;42.85;20.05;;;;;;;;;;5056376;28;20048;-61
2022/06/22 04:08:36;;;;;;;41.33;20.10;;;;;;;;;;5059417;28;20541;-60
2022/06/22 04:11:06;;;;;;;41.97;19.23;;;;;;;;;;5062944;28;20025;-60
2022/06/22 04:13:35;;;;;;;34.75;18.90;;;;;;;;;;5067029;28;20029;-61
2022/06/22 04:16:36;;;;;;;48.15;20.60;;;;;;;;;;5053933;28;20032;-60
2022/06/22 04:19:12;;;;;;;44.15;20.33;;;;;;;;;;5007833;28;20033;-60
2022/06/22 04:21:41;;;;;;;40.90;19.13;;;;;;;;;;5010877;28;20042;-61
2022/06/22 04:24:13;;;;;;;38.80;18.70;;;;;;;;;;5002827;28;20026;-61
2022/06/22 04:26:42;;;;;;;45.50;19.33;;;;;;;;;;5003985;28;20073;-61
2022/06/22 04:29:12;;;;;;;45.92;20.60;;;;;;;;;;5016693;28;20038;-61
2022/06/22 04:31:42;;;;;;;44.95;20.60;;;;;;;;;;4999292;28;20076;-61
2022/06/22 04:34:14;;;;;;;50.53;20.35;;;;;;;;;;5005703;28;20536;-61
2022/06/22 04:36:43;;;;;;;48.95;20.08;;;;;;;;;;5003648;28;20072;-61
2022/06/22 04:39:31;;;;;;;48.95;21.98;;;;;;;;;;5004932;28;20045;-61
2022/06/22 04:41:58;;;;;;;45.30;21.10;;;;;;;;;;5005284;28;20128;-61
2022/06/22 04:44:26;;;;;;;46.22;20.90;;;;;;;;;;5004833;28;20031;-61
2022/06/22 04:46:53;;;;;;;50.90;21.92;;;;;;;;;;5009910;28;20072;-61
2022/06/22 04:49:19;;;;;;;42.50;20.52;;;;;;;;;;5005304;28;20030;-61
2022/06/22 04:51:48;;;;;;;49.90;21.15;;;;;;;;;;5003705;28;20460;-61
2022/06/22 04:54:22;;;;;;;50.50;21.48;;;;;;;;;;5052911;28;20468;-61
2022/06/22 04:56:50;;;;;;;45.72;21.75;;;;;;;;;;5061325;28;20037;-61
2022/06/22 04:59:17;;;;;;;41.78;22.05;;;;;;;;;;5060357;28;20044;-61
2022/06/22 05:01:50;;;;;;;49.92;21.65;;;;;;;;;;5061397;28;20021;-61
2022/06/22 05:04:19;;;;;;;45.05;22.10;;;;;;;;;;5066000;28;20047;-61
2022/06/22 05:07:00;;;;;;;50.05;24.55;;;;;;;;;;5062634;28;20044;-61
2022/06/22 05:09:32;;;;;;;44.70;20.98;;;;;;;;;;5053738;28;20443;-61
2022/06/22 05:12:00;;;;;;;46.95;22.38;;;;;;;;;;5051105;28;20128;-61
2022/06/22 05:14:28;;;;;;;54.28;22.98;;;;;;;;;;5051699;28;20567;-61
2022/06/22 05:16:57;;;;;;;52.83;23.48;;;;;;;;;;5055989;28;20435;-61
2022/06/22 05:19:24;;;;;;;53.92;22.77;;;;;;;;;;5055877;28;20029;-61
2022/06/22 05:21:50;;;;;;;55.53;23.92;;;;;;;;;;5054301;28;20085;-61
2022/06/22 05:24:37;;;;;;;52.03;23.70;;;;;;;;;;5053695;28;20442;-61
2022/06/22 05:27:05;;;;;;;59.30;24.42;;;;;;;;;;5052654;28;20039;-61
2022/06/22 05:29:33;;;;;;;56.45;24.92;;;;;;;;;;5057310;28;20033;-61
2022/06/22 05:32:02;;;;;;;52.05;24.98;;;;;;;;;;5059203;28;20116;-61
2022/06/22 05:34:31;;;;;;;52.15;23.30;;;;;;;;;;5058907;28;20073;-61
2022/06/22 05:37:01;;;;;;;56.75;25.05;;;;;;;;;;5062133;28;20032;-61
2022/06/22 05:39:28;;;;;;;54.60;26.80;;;;;;;;;;5053800;28;20614;-61
2022/06/22 05:41:54;;;;;;;51.80;24.85;;;;;;;;;;5057122;28;20111;-61
2022/06/22 05:44:21;;;;;;;57.33;24.80;;;;;;;;;;5052444;28;20033;-61
2022/06/22 05:46:52;;;;;;;49.13;24.67;;;;;;;;;;5052097;28;20060;-61
2022/06/22 05:49:19;;;;;;;53.90;23.95;;;;;;;;;;5050923;28;20487;-61
2022/06/22 05:51:51;;;;;;;51.45;23.90;;;;;;;;;;5051489;28;20053;-61
2022/06/22 05:54:26;;;;;;;53.00;25.20;;;;;;;;;;5052389;28;20017;-61
2022/06/22 05:57:13;;;;;;;53.08;24.45;;;;;;;;;;5055634;28;20032;-61
2022/06/22 05:59:53;;;;;;;49.55;23.73;;;;;;;;;;5021644;28;20461;-61
2022/06/22 06:02:25;;;;;;;55.75;24.48;;;;;;;;;;5025739;28;20038;-61
2022/06/22 06:04:55;;;;;;;51.22;23.42;;;;;;;;;;5022534;28;20041;-61
2022/06/22 06:07:33;;;;;;;62.50;24.73;;;;;;;;;;5016948;28;20055;-61
2022/06/22 06:10:00;;;;;;;46.65;23.45;;;;;;;;;;5022642;28;20402;-61
2022/06/22 06:12:38;;;;;;;41.90;25.15;;;;;;;;;;5025061;28;20164;-61
2022/06/22 06:15:06;;;;;;;54.35;24.48;;;;;;;;;;5018338;28;20104;-61
2022/06/22 06:17:32;;;;;;;49.83;24.10;;;;;;;;;;5007387;28;20401;-61
2022/06/22 06:19:59;;;;;;;51.55;24.95;;;;;;;;;;5026822;28;20025;-61
2022/06/22 06:22:28;;;;;;;57.47;25.45;;;;;;;;;;5023348;28;20516;-61
2022/06/22 06:27:44;;;;;;;50.80;23.90;;;;;;;;;;5023920;28;20033;-61
2022/06/22 06:30:15;;;;;;;49.47;24.20;;;;;;;;;;5022180;28;20449;-61
2022/06/22 06:32:47;;;;;;;48.05;23.65;;;;;;;;;;5022157;28;20046;-61
2022/06/22 06:35:22;;;;;;;49.03;22.77;;;;;;;;;;5024472;28;20033;-61
2022/06/22 06:37:58;;;;;;;50.15;22.50;;;;;;;;;;5060386;28;20655;-61
2022/06/22 06:40:41;;;;;;;49.42;22.80;;;;;;;;;;5061599;28;20473;-61
2022/06/22 06:43:20;;;;;;;44.85;21.35;;;;;;;;;;5061905;28;20071;-61
2022/06/22 06:45:46;;;;;;;44.85;21.30;;;;;;;;;;5062680;28;20021;-61
2022/06/22 06:48:16;;;;;;;38.25;21.63;;;;;;;;;;5068328;28;20024;-61
2022/06/22 06:50:47;;;;;;;41.35;19.23;;;;;;;;;;5064528;28;20028;-61
2022/06/22 06:53:14;;;;;;;49.20;21.02;;;;;;;;;;5062831;28;20025;-61
2022/06/22 06:55:40;;;;;;;36.38;19.10;;;;;;;;;;5060610;28;20110;-61
2022/06/22 06:58:13;;;;;;;44.92;20.42;;;;;;;;;;5060722;28;20401;-61
2022/06/22 07:00:39;;;;;;;44.65;20.05;;;;;;;;;;5067879;28;20079;-60
2022/06/22 07:03:14;;;;;;;39.95;18.42;;;;;;;;;;5075089;28;20047;-60
2022/06/22 07:05:40;;;;;;;40.00;19.13;;;;;;;;;;5070222;28;20033;-60
2022/06/22 07:08:11;;;;;;;42.15;17.23;;;;;;;;;;5062812;28;20033;-61
2022/06/22 07:10:37;;;;;;;36.53;16.55;;;;;;;;;;5066495;28;20028;-61
2022/06/22 07:13:06;;;;;;;34.85;16.13;;;;;;;;;;5070533;28;20082;-60
2022/06/22 07:15:34;;;;;;;33.83;15.10;;;;;;;;;;5064619;28;20027;-61
2022/06/22 07:18:03;;;;;;;36.78;15.65;;;;;;;;;;5066697;28;20445;-61
2022/06/22 07:20:34;;;;;;;38.22;15.63;;;;;;;;;;5056263;28;20086;-61
2022/06/22 07:23:02;;;;;;;31.83;15.27;;;;;;;;;;5058582;28;20207;-61
2022/06/22 07:25:40;;;;;;;39.20;14.57;;;;;;;;;;5059268;28;20032;-61
2022/06/22 07:28:26;;;;;;;33.60;16.25;;;;;;;;;;5058381;28;20078;-61
2022/06/22 07:30:55;;;;;;;30.92;14.38;;;;;;;;;;5062568;28;20028;-61
2022/06/22 07:33:25;;;;;;;33.20;14.23;;;;;;;;;;5059968;28;20032;-61
2022/06/22 07:36:03;;;;;;;28.45;13.38;;;;;;;;;;5060674;28;20972;-61
2022/06/22 07:38:29;;;;;;;33.33;13.48;;;;;;;;;;5058767;28;20087;-61
2022/06/22 07:43:40;;;;;;;31.95;12.43;;;;;;;;;;5057629;28;20440;-61
2022/06/22 07:46:07;;;;;;;34.80;12.63;;;;;;;;;;5055493;28;20116;-61
2022/06/22 07:48:36;;;;;;;36.83;12.93;;;;;;;;;;5062085;28;20595;-61
2022/06/22 07:51:05;;;;;;;32.10;12.55;;;;;;;;;;5065655;28;20033;-61
2022/06/22 07:53:31;;;;;;;25.95;12.48;;;;;;;;;;5059162;28;20029;-61
2022/06/22 07:56:10;;;;;;;28.90;12.85;;;;;;;;;;5067091;28;20028;-61
2022/06/22 07:58:41;;;;;;;27.73;12.07;;;;;;;;;;5058434;28;20032;-61
2022/06/22 08:01:11;;;;;;;27.95;12.30;;;;;;;;;;5057119;28;20503;-61
2022/06/22 08:03:44;;;;;;;33.70;12.60;;;;;;;;;;5067400;28;20487;-61
2022/06/22 08:06:13;;;;;;;29.23;11.55;;;;;;;;;;5057336;28;20059;-61
2022/06/22 08:08:44;;;;;;;24.08;11.18;;;;;;;;;;5059084;28;20100;-61
2022/06/22 08:11:26;;;;;;;30.25;11.60;;;;;;;;;;5058330;28;20029;-61
2022/06/22 08:14:15;;;;;;;24.73;10.90;;;;;;;;;;5065553;28;20025;-61
2022/06/22 08:16:44;;;;;;;22.95;10.30;;;;;;;;;;5053692;28;20037;-61
2022/06/22 08:19:11;;;;;;;30.42;10.82;;;;;;;;;;5061538;28;20060;-61
2022/06/22 08:21:43;;;;;;;25.73;11.07;;;;;;;;;;5061579;28;20074;-61
2022/06/22 08:24:11;;;;;;;39.33;12.43;;;;;;;;;;5061863;28;20032;-61
2022/06/22 08:26:37;;;;;;;30.25;11.38;;;;;;;;;;5068164;28;20412;-61
2022/06/22 08:29:03;;;;;;;38.50;13.20;;;;;;;;;;5062014;28;20090;-61
2022/06/22 08:31:35;;;;;;;33.00;12.88;;;;;;;;;;5057250;28;20025;-61
2022/06/22 08:34:03;;;;;;;31.55;13.25;;;;;;;;;;5061334;28;20028;-61
2022/06/22 08:36:36;;;;;;;32.25;12.68;;;;;;;;;;5057739;28;20108;-61
2022/06/22 08:39:02;;;;;;;;;;;;;;;;;;5061665;28;20115;-61
2022/06/22 08:41:28;;;;;;;31.33;13.13;;;;;;;;;;5066155;28;20011;-61
2022/06/22 08:44:13;;;;;;;26.98;13.15;;;;;;;;;;5058586;28;20075;-61
2022/06/22 08:46:42;;;;;;;34.03;13.80;;;;;;;;;;5060179;28;20036;-61
2022/06/22 08:49:24;;;;;;;27.55;13.45;;;;;;;;;;5055567;28;20089;-61
2022/06/22 08:52:05;;;;;;;29.73;13.60;;;;;;;;;;5065032;28;20028;-61
2022/06/22 08:54:34;;;;;;;36.30;14.30;;;;;;;;;;5059882;28;20024;-61
2022/06/22 08:57:07;;;;;;;35.10;13.30;;;;;;;;;;5062167;28;20043;-61
2022/06/22 08:59:39;;;;;;;39.67;15.52;;;;;;;;;;5057611;28;20043;-61
2022/06/22 09:02:11;;;;;;;30.63;14.60;;;;;;;;;;5061423;28;20040;-61
2022/06/22 09:04:53;;;;;;;39.22;17.15;;;;;;;;;;5058385;28;20024;-61
2022/06/22 09:07:22;;;;;;;42.20;15.45;;;;;;;;;;5059650;28;20068;-61
2022/06/22 09:10:03;;;;;;;34.60;15.65;;;;;;;;;;5063645;28;20116;-61
2022/06/22 09:12:35;;;;;;;40.72;15.70;;;;;;;;;;5058221;28;20039;-61
2022/06/22 09:15:20;;;;;;;37.43;15.33;;;;;;;;;;5062029;28;20032;-61
2022/06/22 09:18:05;;;;;;;30.48;14.50;;;;;;;;;;5056936;28;20790;-61
2022/06/22 09:20:34;;;;;;;36.60;15.90;;;;;;;;;;5058979;28;20032;-61
2022/06/22 09:23:15;;;;;;;33.85;13.43;;;;;;;;;;5061150;28;20257;-61
2022/06/22 09:25:41;;;;;;;37.13;14.38;;;;;;;;;;5054511;28;20514;-61
2022/06/22 09:28:07;;;;;;;31.65;15.43;;;;;;;;;;5056479;28;20624;-61
2022/06/22 09:30:46;;;;;;;32.75;13.52;;;;;;;;;;5055455;28;20029;-61
2022/06/22 09:33:28;;;;;;;30.50;13.82;;;;;;;;;;5055148;28;20119;-60
2022/06/22 09:35:57;;;;;;;32.00;13.15;;;;;;;;;;5061621;28;20024;-60
2022/06/22 09:38:32;;;;;;;32.35;13.50;;;;;;;;;;5055959;28;20491;-61
2022/06/22 09:41:13;;;;;;;23.95;13.70;;;;;;;;;;5062090;28;20066;-61
2022/06/22 09:43:55;;;;;;;31.58;14.35;;;;;;;;;;5062778;28;20067;-61
2022/06/22 09:46:27;;;;;;;45.78;16.05;;;;;;;;;;5058196;28;20112;-61
2022/06/22 09:48:53;;;;;;;34.22;15.13;;;;;;;;;;5060895;28;20056;-61
2022/06/22 09:51:35;;;;;;;28.70;13.73;;;;;;;;;;5058411;28;20097;-61
2022/06/22 09:54:01;;;;;;;33.15;13.07;;;;;;;;;;5062545;28;20054;-61
2022/06/22 09:56:30;;;;;;;29.85;13.63;;;;;;;;;;5052524;28;20119;-61
2022/06/22 09:59:19;;;;;;;32.10;12.52;;;;;;;;;;5058346;28;20032;-60
2022/06/22 10:02:04;;;;;;;31.88;14.38;;;;;;;;;;5059853;28;20493;-61
2022/06/22 10:04:48;;;;;;;30.50;13.38;;;;;;;;;;5055748;28;20040;-61
2022/06/22 10:07:32;;;;;;;24.65;13.13;;;;;;;;;;5060389;28;20024;-60
2022/06/22 10:10:05;;;;;;;34.10;13.05;;;;;;;;;;5061387;28;20040;-60
2022/06/22 10:12:50;;;;;;;32.53;13.57;;;;;;;;;;5058654;28;20374;-61
2022/06/22 10:15:38;;;;;;;31.65;13.15;;;;;;;;;;5063761;28;20029;-60
2022/06/22 10:18:27;;;;;;;33.45;13.30;;;;;;;;;;5058703;28;20484;-61
2022/06/22 10:20:53;;;;;;;27.42;11.98;;;;;;;;;;5060647;28;20051;-61
2022/06/22 10:23:58;;;;;;;25.02;12.23;;;;;;;;;;5066091;28;20031;-61
2022/06/22 10:26:41;;;;;;;28.55;13.25;;;;;;;;;;5020377;28;20034;-61
2022/06/22 10:29:16;;;;;;;28.52;13.75;;;;;;;;;;5026574;28;20036;-61
2022/06/22 10:31:48;;;;;;;30.38;13.25;;;;;;;;;;5021092;28;20034;-61
2022/06/22 10:34:17;;;;;;;25.60;12.43;;;;;;;;;;5020440;28;20026;-61
2022/06/22 10:37:02;;;;;;;30.30;12.02;;;;;;;;;;5020115;28;20030;-61
2022/06/22 10:39:31;;;;;;;22.27;11.23;;;;;;;;;;5018006;28;20030;-61
2022/06/22 10:45:11;;;;;;;32.38;12.38;;;;;;;;;;5016491;28;20402;-61
2022/06/22 10:47:55;;;;;;;36.60;13.27;;;;;;;;;;5021615;28;20029;-61
2022/06/22 10:50:22;;;;;;;31.08;12.85;;;;;;;;;;5024971;28;20080;-61
2022/06/22 10:52:57;;;;;;;32.92;13.25;;;;;;;;;;5016806;28;20045;-61
2022/06/22 10:55:35;;;;;;;30.35;12.63;;;;;;;;;;5024961;28;20025;-61
2022/06/22 10:58:04;;;;;;;30.45;11.73;;;;;;;;;;5050918;28;20058;-61
2022/06/22 11:00:42;;;;;;;23.92;11.52;;;;;;;;;;5066633;28;20054;-61
2022/06/22 11:03:26;;;;;;;29.00;13.05;;;;;;;;;;5073174;28;20039;-61
2022/06/22 11:06:12;;;;;;;28.40;11.75;;;;;;;;;;5054008;28;20116;-61
2022/06/22 11:08:47;;;;;;;33.65;12.07;;;;;;;;;;5061023;28;20027;-61
2022/06/22 11:11:14;;;;;;;30.88;12.20;;;;;;;;;;5058235;28;20029;-61
2022/06/22 11:13:46;;;;;;;27.33;12.02;;;;;;;;;;5057596;28;20029;-61
2022/06/22 11:16:24;;;;;;;32.05;12.68;;;;;;;;;;5055198;28;20480;-61
2022/06/22 11:19:08;;;;;;;27.13;12.55;;;;;;;;;;5057387;28;20032;-60
2022/06/22 11:21:49;;;;;;;36.58;12.05;;;;;;;;;;5055953;28;20477;-61
2022/06/22 11:24:41;;;;;;;36.67;13.27;;;;;;;;;;5055319;28;20055;-60
2022/06/22 11:33:02;;;;;;;27.55;11.23;;;;;;;;;;5062700;28;20068;-61
2022/06/22 11:35:28;;;;;;;28.40;12.32;;;;;;;;;;5058643;28;20025;-61
2022/06/22 11:38:13;;;;;;;28.05;12.48;;;;;;;;;;5055869;28;20033;-61
2022/06/22 11:40:47;;;;;;;29.63;12.18;;;;;;;;;;5055312;28;21112;-60
2022/06/22 11:43:32;;;;;;;30.08;11.75;;;;;;;;;;5051427;28;20044;-60
2022/06/22 11:45:59;;;;;;;29.45;13.00;;;;;;;;;;5055899;28;20032;-61
2022/06/22 11:48:31;;;;;;;23.13;11.27;;;;;;;;;;5053314;28;20029;-61
2022/06/22 11:51:14;;;;;;;27.65;12.63;;;;;;;;;;5056199;28;20760;-61
2022/06/22 11:53:41;;;;;;;27.50;12.00;;;;;;;;;;5055039;28;20025;-61
2022/06/22 11:56:17;;;;;;;32.15;11.25;;;;;;;;;;5053746;28;20048;-61
2022/06/22 11:58:50;;;;;;;32.85;11.75;;;;;;;;;;5059386;28;20060;-61
2022/06/22 12:01:23;;;;;;;26.67;12.57;;;;;;;;;;5058555;28;20025;-61
2022/06/22 12:03:53;;;;;;;22.23;11.77;;;;;;;;;;5051219;28;20446;-61
2022/06/22 12:06:41;;;;;;;24.50;12.23;;;;;;;;;;5035705;28;20025;-61
2022/06/22 12:09:24;;;;;;;26.23;13.23;;;;;;;;;;5054473;28;20025;-61
2022/06/22 12:12:10;;;;;;;27.13;11.60;;;;;;;;;;5053984;28;20044;-61
2022/06/22 12:15:05;;;;;;;26.02;11.88;;;;;;;;;;5051336;28;20024;-61
2022/06/22 12:17:37;;;;;;;24.42;11.95;;;;;;;;;;5059078;28;20024;-61
2022/06/22 12:20:27;;;;;;;24.95;10.40;;;;;;;;;;5053201;28;20052;-61
2022/06/22 12:22:56;;;;;;;26.27;11.63;;;;;;;;;;5056074;28;20492;-61
2022/06/22 12:25:22;;;;;;;29.90;13.10;;;;;;;;;;5054740;28;20036;-61
2022/06/22 12:27:55;;;;;;;25.05;11.32;;;;;;;;;;5054734;28;20087;-61
2022/06/22 12:30:33;;;;;;;29.40;12.65;;;;;;;;;;5054383;28;20082;-61
2022/06/22 12:33:33;;;;;;;26.40;10.98;;;;;;;;;;5055376;28;20025;-61
2022/06/22 12:36:21;;;;;;;29.60;12.73;;;;;;;;;;5007301;28;20100;-61
2022/06/22 12:38:49;;;;;;;24.90;10.68;;;;;;;;;;5006680;28;20076;-60
2022/06/22 12:41:30;;;;;;;27.98;10.80;;;;;;;;;;5009955;28;20026;-62
2022/06/22 12:44:29;;;;;;;23.73;10.25;;;;;;;;;;5004283;28;20037;-61
2022/06/22 12:47:07;;;;;;;30.02;10.73;;;;;;;;;;4969852;28;20065;-61
2022/06/22 12:49:53;;;;;;;21.88;10.93;;;;;;;;;;4982291;28;20033;-61
2022/06/22 12:52:25;;;;;;;23.65;11.70;;;;;;;;;;5003173;28;20044;-61
2022/06/22 12:55:00;;;;;;;17.93;10.67;;;;;;;;;;5004548;28;21063;-61
2022/06/22 12:57:32;;;;;;;20.33;11.13;;;;;;;;;;5009201;28;20026;-61
2022/06/22 13:00:01;;;;;;;20.50;10.83;;;;;;;;;;4990487;28;20052;-60
2022/06/22 13:02:29;;;;;;;21.25;10.90;;;;;;;;;;5008615;28;20288;-60
2022/06/22 13:04:58;;;;;;;25.23;10.55;;;;;;;;;;5003438;28;20033;-60
2022/06/22 13:07:24;;;;;;;25.35;11.50;;;;;;;;;;5010132;28;20032;-61
2022/06/22 13:09:50;;;;;;;22.77;11.32;;;;;;;;;;5007467;28;20033;-60
2022/06/22 13:12:20;;;;;;;18.40;10.32;;;;;;;;;;5054965;28;20052;-60
2022/06/22 13:14:51;;;;;;;21.85;9.25;;;;;;;;;;5057746;28;20025;-61
2022/06/22 13:17:17;;;;;;;29.77;10.13;;;;;;;;;;5051656;28;20017;-60
2022/06/22 13:19:55;;;;;;;18.05;9.93;;;;;;;;;;5051941;28;20092;-60
2022/06/22 13:22:40;;;;;;;21.33;10.82;;;;;;;;;;5050291;28;20047;-61
2022/06/22 13:25:12;;;;;;;16.63;9.43;;;;;;;;;;5053963;28;20552;-60
2022/06/22 13:27:47;;;;;;;16.80;10.05;;;;;;;;;;5054205;28;20021;-60
2022/06/22 13:30:20;;;;;;;24.75;10.95;;;;;;;;;;5054037;28;20044;-60
2022/06/22 13:32:56;;;;;;;23.42;11.57;;;;;;;;;;5050359;28;20041;-60
2022/06/22 13:35:28;;;;;;;25.38;12.00;;;;;;;;;;5055153;28;20044;-61
2022/06/22 13:38:01;;;;;;;21.80;11.20;;;;;;;;;;5051750;28;20037;-61
2022/06/22 13:40:33;;;;;;;28.10;12.48;;;;;;;;;;5052832;28;20048;-61
2022/06/22 13:43:03;;;;;;;30.13;12.47;;;;;;;;;;5052522;28;20404;-61
2022/06/22 13:45:43;;;;;;;28.23;12.45;;;;;;;;;;5056530;28;20404;-60
2022/06/22 13:48:19;;;;;;;29.42;10.82;;;;;;;;;;5052786;28;20319;-60
2022/06/22 13:53:28;;;;;;;23.58;11.40;;;;;;;;;;5062243;28;20028;-60
2022/06/22 13:55:59;;;;;;;27.60;11.38;;;;;;;;;;5054418;28;20033;-60
2022/06/22 13:58:29;;;;;;;24.92;12.82;;;;;;;;;;5059398;28;20016;-61
2022/06/22 14:01:00;;;;;;;23.63;11.80;;;;;;;;;;5059227;28;20044;-60
2022/06/22 14:03:30;;;;;;;25.10;12.33;;;;;;;;;;5052088;28;20044;-60
2022/06/22 14:05:59;;;;;;;27.65;12.73;;;;;;;;;;5062419;28;20059;-60
2022/06/22 14:08:52;;;;;;;30.75;13.82;;;;;;;;;;5065233;28;20021;-60
2022/06/22 14:11:18;;;;;;;31.17;13.82;;;;;;;;;;5018442;28;20038;-60
2022/06/22 14:13:55;;;;;;;29.25;12.95;;;;;;;;;;5021643;28;20022;-60
2022/06/22 14:16:26;;;;;;;35.13;15.27;;;;;;;;;;5015032;28;20136;-60
2022/06/22 14:19:01;;;;;;;32.00;13.90;;;;;;;;;;5019990;28;20520;-60
2022/06/22 14:21:36;;;;;;;32.40;12.38;;;;;;;;;;5014473;28;20045;-60
2022/06/22 14:24:23;;;;;;;28.67;13.05;;;;;;;;;;5022492;28;20068;-60
2022/06/22 14:26:59;;;;;;;27.95;12.30;;;;;;;;;;5019722;28;20075;-60
2022/06/22 14:29:32;;;;;;;27.42;13.40;;;;;;;;;;5008472;28;20145;-60
2022/06/22 14:32:11;;;;;;;33.97;13.32;;;;;;;;;;5010970;28;20048;-60
2022/06/22 14:34:40;;;;;;;27.95;12.48;;;;;;;;;;4983042;28;20448;-60
2022/06/22 14:37:26;;;;;;;35.03;14.90;;;;;;;;;;5011900;28;20049;-60
2022/06/22 14:39:55;;;;;;;26.35;13.23;;;;;;;;;;5013828;28;20033;-60
2022/06/22 14:42:24;;;;;;;25.75;12.77;;;;;;;;;;5017341;28;20041;-60
2022/06/22 14:44:58;;;;;;;19.83;10.98;;;;;;;;;;5018235;28;20068;-60
2022/06/22 14:47:26;;;;;;;22.95;11.70;;;;;;;;;;5025915;28;20447;-60
2022/06/22 14:50:11;;;;;;;28.17;12.63;;;;;;;;;;5058228;28;20332;-60
2022/06/22 14:52:56;;;;;;;32.28;11.05;;;;;;;;;;5057704;28;20155;-60
2022/06/22 14:55:34;;;;;;;29.60;10.88;;;;;;;;;;5055996;28;20494;-60
2022/06/22 14:58:07;;;;;;;32.40;11.40;;;;;;;;;;5059784;28;20032;-59
2022/06/22 15:00:56;;;;;;;24.80;12.07;;;;;;;;;;5054576;28;20132;-60
2022/06/22 15:03:39;;;;;;;27.92;10.95;;;;;;;;;;5057108;28;20492;-59
2022/06/22 15:06:43;;;;;;;28.25;11.73;;;;;;;;;;5052545;28;20566;-59
2022/06/22 15:09:30;;;;;;;32.40;11.73;;;;;;;;;;5048842;28;20094;-59
2022/06/22 15:14:48;;;;;;;25.83;11.15;;;;;;;;;;5055821;28;20029;-60
2022/06/22 15:17:18;;;;;;;23.88;11.40;;;;;;;;;;5055000;28;20032;-59
2022/06/22 15:20:07;;;;;;;22.48;11.07;;;;;;;;;;5055167;28;20052;-59